Terminal Aerodrome Forecast
Issued by NWS

Home | Current Version | Previous Version | Text Only | Print | Product List | Glossary On
Versions: 1 2 3 4 5 6 7 8 9 10 11 12 13
000
FTUS46 KMTR 250532
TAFOAK
TAF
KOAK 250532Z 2506/2612 29010KT P6SM SCT250
     FM250800 03005KT P6SM SCT250
     FM252100 29012KT P6SM SCT250
     FM260300 29008KT P6SM SCT250
     FM260800 29004KT P6SM FEW250=

USA.gov is the U.S. government's official web portal to all federal, state and local government web resources and services.